createdAt,value
2023-04-08T00:00:07.831Z,951.82
2023-04-08T00:01:07.718Z,951.87
2023-04-08T00:02:07.839Z,951.89
2023-04-08T00:03:07.894Z,951.89
2023-04-08T00:04:07.880Z,951.87
2023-04-08T00:05:07.692Z,951.89
2023-04-08T00:06:08.240Z,951.90
2023-04-08T00:07:07.671Z,951.86
2023-04-08T00:08:07.795Z,951.87
2023-04-08T00:09:07.702Z,951.85
2023-04-08T00:10:07.618Z,951.87
2023-04-08T00:11:07.616Z,951.87
2023-04-08T00:12:08.225Z,951.84
2023-04-08T00:13:07.569Z,951.88
2023-04-08T00:14:07.679Z,951.84
2023-04-08T00:15:07.562Z,951.84
2023-04-08T00:16:08.250Z,951.81
2023-04-08T00:17:08.260Z,951.79
2023-04-08T00:18:07.618Z,951.84
2023-04-08T00:19:07.563Z,951.82
2023-04-08T00:20:08.231Z,951.82
2023-04-08T00:21:07.648Z,951.80
2023-04-08T00:22:07.530Z,951.78
2023-04-08T00:23:07.582Z,951.80
2023-04-08T00:24:07.470Z,951.80
2023-04-08T00:25:07.522Z,951.75
2023-04-08T00:26:07.462Z,951.81
2023-04-08T00:27:07.523Z,951.81
2023-04-08T00:28:07.768Z,951.83
2023-04-08T00:29:07.404Z,951.78
2023-04-08T00:30:08.672Z,951.81
2023-04-08T00:31:07.460Z,951.81
2023-04-08T00:32:07.373Z,951.81
2023-04-08T00:33:07.589Z,951.81
2023-04-08T00:34:07.360Z,951.80
2023-04-08T00:35:07.340Z,951.81
2023-04-08T00:36:07.345Z,951.77
2023-04-08T00:37:07.450Z,951.84
2023-04-08T00:38:07.397Z,951.83
2023-04-08T00:39:07.290Z,951.85
2023-04-08T00:40:07.316Z,951.85
2023-04-08T00:41:07.324Z,951.85
2023-04-08T00:42:07.262Z,951.81
2023-04-08T00:43:07.236Z,951.84
2023-04-08T00:44:07.374Z,951.88
2023-04-08T00:45:07.299Z,951.88
2023-04-08T00:46:07.344Z,951.84
2023-04-08T00:47:07.580Z,951.86
2023-04-08T00:48:07.182Z,951.89
2023-04-08T00:49:07.172Z,951.91
2023-04-08T00:50:07.490Z,951.87
2023-04-08T00:51:07.162Z,951.85
2023-04-08T00:52:07.177Z,951.87
2023-04-08T00:53:07.275Z,951.89
2023-04-08T00:54:07.296Z,951.89
2023-04-08T00:55:07.127Z,951.88
2023-04-08T00:56:07.513Z,951.85
2023-04-08T00:57:07.103Z,951.92
2023-04-08T00:58:07.148Z,951.90
2023-04-08T00:59:07.260Z,951.88
2023-04-08T01:00:07.529Z,951.92
2023-04-08T01:01:07.395Z,951.92
2023-04-08T01:02:07.543Z,951.89
2023-04-08T01:03:07.304Z,951.94
2023-04-08T01:04:07.242Z,951.90
2023-04-08T01:05:07.079Z,951.94
2023-04-08T01:06:06.987Z,951.91
2023-04-08T01:07:07.056Z,951.92
2023-04-08T01:08:06.953Z,951.92
2023-04-08T01:09:07.326Z,951.96
2023-04-08T01:10:07.693Z,951.92
2023-04-08T01:11:07.442Z,951.95
2023-04-08T01:12:07.330Z,951.93
2023-04-08T01:13:07.051Z,951.87
2023-04-08T01:14:06.958Z,951.88
2023-04-08T01:15:06.893Z,951.93
2023-04-08T01:16:07.340Z,951.94
2023-04-08T01:17:06.978Z,951.91
2023-04-08T01:18:07.012Z,951.93
2023-04-08T01:19:07.189Z,951.93
2023-04-08T01:20:06.842Z,951.91
2023-04-08T01:21:07.257Z,951.94
2023-04-08T01:22:06.809Z,951.92
2023-04-08T01:23:07.322Z,951.93
2023-04-08T01:24:07.133Z,952.01
2023-04-08T01:25:06.880Z,951.96
2023-04-08T01:26:06.810Z,951.98
2023-04-08T01:27:06.824Z,951.92
2023-04-08T01:28:06.940Z,951.92
2023-04-08T01:29:06.991Z,951.87
2023-04-08T01:30:06.982Z,951.86
2023-04-08T01:31:06.814Z,951.86
2023-04-08T01:32:07.095Z,951.87
2023-04-08T01:33:06.721Z,951.88
2023-04-08T01:34:06.765Z,951.89
2023-04-08T01:35:06.811Z,951.89
2023-04-08T01:36:06.722Z,951.84
2023-04-08T01:37:07.020Z,951.84
2023-04-08T01:38:06.748Z,951.89
2023-04-08T01:39:06.743Z,951.88
2023-04-08T01:40:06.735Z,951.82
2023-04-08T01:41:07.003Z,951.87
2023-04-08T01:42:06.624Z,951.87
2023-04-08T01:43:06.636Z,951.88
2023-04-08T01:44:06.546Z,951.86
2023-04-08T01:45:06.810Z,951.90
2023-04-08T01:46:06.606Z,951.87
2023-04-08T01:47:06.864Z,951.82
2023-04-08T01:48:06.578Z,951.86
2023-04-08T01:49:06.974Z,951.84
2023-04-08T01:50:07.241Z,951.86
2023-04-08T01:51:06.549Z,951.85
2023-04-08T01:52:06.486Z,951.87
2023-04-08T01:53:06.434Z,951.85
2023-04-08T01:54:06.466Z,951.88
2023-04-08T01:55:06.454Z,951.85
2023-04-08T01:56:07.788Z,951.87
2023-04-08T01:57:06.419Z,951.82
2023-04-08T01:58:06.606Z,951.80
2023-04-08T01:59:06.788Z,951.84
2023-04-08T02:00:07.181Z,951.80
2023-04-08T02:01:06.395Z,951.79
2023-04-08T02:02:06.452Z,951.85
2023-04-08T02:03:06.519Z,951.89
2023-04-08T02:04:06.530Z,951.88
2023-04-08T02:05:06.770Z,951.86
2023-04-08T02:06:07.252Z,951.88
2023-04-08T02:07:06.435Z,951.88
2023-04-08T02:08:06.547Z,951.86
2023-04-08T02:09:06.264Z,951.86
2023-04-08T02:10:06.336Z,951.85
2023-04-08T02:11:06.312Z,951.87
2023-04-08T02:12:06.277Z,951.88
2023-04-08T02:13:06.488Z,951.84
2023-04-08T02:14:06.257Z,951.89
2023-04-08T02:15:06.596Z,951.87
2023-04-08T02:16:06.350Z,951.88
2023-04-08T02:17:06.459Z,951.90
2023-04-08T02:18:06.367Z,951.87
2023-04-08T02:19:06.225Z,951.91
2023-04-08T02:20:06.233Z,951.91
2023-04-08T02:21:06.209Z,951.88
2023-04-08T02:22:06.130Z,951.90
2023-04-08T02:23:06.111Z,951.87
2023-04-08T02:24:06.331Z,951.89
2023-04-08T02:25:06.120Z,951.92
2023-04-08T02:26:06.299Z,951.91
2023-04-08T02:27:06.088Z,951.87
2023-04-08T02:28:06.031Z,951.86
2023-04-08T02:29:06.105Z,951.94
2023-04-08T02:30:06.034Z,951.87
2023-04-08T02:31:06.208Z,951.91
2023-04-08T02:32:06.276Z,951.89
2023-04-08T02:33:06.097Z,951.90
2023-04-08T02:34:05.974Z,951.95
2023-04-08T02:35:06.028Z,951.95
2023-04-08T02:36:06.052Z,951.91
2023-04-08T02:37:06.010Z,951.90
2023-04-08T02:38:06.210Z,951.93
2023-04-08T02:39:05.910Z,951.87
2023-04-08T02:40:05.914Z,951.93
2023-04-08T02:41:05.951Z,951.94
2023-04-08T02:42:06.148Z,951.93
2023-04-08T02:43:05.918Z,951.97
2023-04-08T02:44:05.935Z,951.94
2023-04-08T02:45:05.909Z,951.93
2023-04-08T02:46:05.982Z,951.95
2023-04-08T02:47:05.858Z,951.91
2023-04-08T02:48:06.118Z,951.98
2023-04-08T02:49:06.034Z,951.98
2023-04-08T02:50:05.822Z,951.97
2023-04-08T02:51:05.885Z,952.02
2023-04-08T02:52:06.496Z,952.00
2023-04-08T02:53:05.755Z,952.00
2023-04-08T02:54:05.737Z,951.99
2023-04-08T02:55:05.763Z,951.98
2023-04-08T02:56:06.069Z,951.98
2023-04-08T02:57:05.801Z,952.00
2023-04-08T02:58:05.846Z,952.00
2023-04-08T02:59:05.717Z,952.00
2023-04-08T03:00:05.680Z,952.02
2023-04-08T03:01:06.290Z,951.99
2023-04-08T03:02:05.837Z,952.03
2023-04-08T03:03:06.284Z,951.97
2023-04-08T03:04:05.647Z,951.99
2023-04-08T03:05:05.976Z,951.98
2023-04-08T03:06:05.866Z,952.01
2023-04-08T03:07:08.031Z,952.02
2023-04-08T03:08:05.572Z,952.01
2023-04-08T03:09:05.586Z,952.01
2023-04-08T03:10:05.568Z,952.00
2023-04-08T03:11:07.180Z,952.01
2023-04-08T03:12:05.757Z,951.98
2023-04-08T03:13:05.653Z,951.97
2023-04-08T03:14:05.747Z,951.99
2023-04-08T03:15:05.518Z,952.01
2023-04-08T03:16:05.588Z,952.01
2023-04-08T03:17:05.475Z,952.08
2023-04-08T03:18:05.515Z,952.07
2023-04-08T03:19:05.626Z,952.04
2023-04-08T03:20:05.528Z,952.07
2023-04-08T03:21:05.670Z,952.06
2023-04-08T03:22:05.416Z,952.05
2023-04-08T03:23:05.573Z,952.09
2023-04-08T03:24:05.593Z,952.10
2023-04-08T03:25:05.407Z,952.12
2023-04-08T03:26:05.378Z,952.04
2023-04-08T03:27:05.452Z,952.10
2023-04-08T03:28:05.462Z,952.08
2023-04-08T03:29:05.342Z,952.11
2023-04-08T03:30:06.257Z,952.09
2023-04-08T03:31:05.552Z,952.08
2023-04-08T03:32:05.525Z,952.12
2023-04-08T03:33:07.300Z,952.11
2023-04-08T03:34:05.394Z,952.15
2023-04-08T03:35:05.327Z,952.12
2023-04-08T03:36:05.456Z,952.16
2023-04-08T03:37:05.278Z,952.14
2023-04-08T03:38:05.278Z,952.17
2023-04-08T03:39:05.554Z,952.22
2023-04-08T03:40:05.239Z,952.20
2023-04-08T03:41:05.220Z,952.24
2023-04-08T03:42:05.211Z,952.21
2023-04-08T03:43:05.338Z,952.21
2023-04-08T03:44:05.189Z,952.19
2023-04-08T03:45:05.192Z,952.18
2023-04-08T03:46:05.201Z,952.17
2023-04-08T03:47:05.326Z,952.18
2023-04-08T03:48:05.208Z,952.18
2023-04-08T03:49:05.165Z,952.23
2023-04-08T03:50:05.193Z,952.22
2023-04-08T03:51:05.236Z,952.25
2023-04-08T03:52:05.075Z,952.28
2023-04-08T03:53:05.204Z,952.20
2023-04-08T03:54:05.061Z,952.25
2023-04-08T03:55:05.144Z,952.27
2023-04-08T03:56:05.281Z,952.22
2023-04-08T03:57:05.037Z,952.23
2023-04-08T03:58:05.302Z,952.29
2023-04-08T03:59:05.142Z,952.24
2023-04-08T04:00:05.175Z,952.24
2023-04-08T04:01:04.977Z,952.20
2023-04-08T04:02:05.078Z,952.21
2023-04-08T04:03:05.036Z,952.22
2023-04-08T04:04:06.177Z,952.20
2023-04-08T04:05:05.039Z,952.19
2023-04-08T04:06:05.102Z,952.20
2023-04-08T04:07:05.026Z,952.22
2023-04-08T04:08:04.910Z,952.24
2023-04-08T04:09:04.969Z,952.23
2023-04-08T04:10:04.999Z,952.29
2023-04-08T04:11:05.029Z,952.28
2023-04-08T04:12:04.949Z,952.26
2023-04-08T04:13:05.383Z,952.29
2023-04-08T04:14:04.864Z,952.24
2023-04-08T04:15:04.862Z,952.28
2023-04-08T04:16:04.848Z,952.24
2023-04-08T04:17:04.894Z,952.24
2023-04-08T04:18:04.881Z,952.18
2023-04-08T04:19:04.881Z,952.23
2023-04-08T04:20:04.774Z,952.26
2023-04-08T04:21:05.001Z,952.20
2023-04-08T04:22:04.757Z,952.22
2023-04-08T04:23:04.761Z,952.22
2023-04-08T04:24:04.713Z,952.23
2023-04-08T04:25:04.901Z,952.21
2023-04-08T04:26:04.686Z,952.22
2023-04-08T04:27:04.703Z,952.18
2023-04-08T04:28:04.706Z,952.24
2023-04-08T04:29:04.700Z,952.18
2023-04-08T04:30:04.644Z,952.23
2023-04-08T04:31:04.699Z,952.23
2023-04-08T04:32:04.616Z,952.26
2023-04-08T04:33:04.788Z,952.30
2023-04-08T04:34:04.594Z,952.29
2023-04-08T04:35:04.591Z,952.26
2023-04-08T04:36:04.744Z,952.25
2023-04-08T04:37:04.606Z,952.28
2023-04-08T04:38:04.698Z,952.27
2023-04-08T04:39:04.607Z,952.29
2023-04-08T04:40:04.548Z,952.30
2023-04-08T04:41:04.531Z,952.28
2023-04-08T04:42:04.635Z,952.30
2023-04-08T04:43:04.547Z,952.29
2023-04-08T04:44:04.661Z,952.29
2023-04-08T04:45:04.485Z,952.28
2023-04-08T04:46:04.502Z,952.31
2023-04-08T04:47:04.449Z,952.27
2023-04-08T04:48:04.520Z,952.32
2023-04-08T04:49:04.434Z,952.37
2023-04-08T04:50:05.230Z,952.33
2023-04-08T04:51:04.461Z,952.34
2023-04-08T04:52:04.821Z,952.37
2023-04-08T04:53:04.403Z,952.38
2023-04-08T04:54:04.393Z,952.39
2023-04-08T04:55:04.511Z,952.40
2023-04-08T04:56:05.233Z,952.40
2023-04-08T04:57:04.552Z,952.44
2023-04-08T04:58:05.312Z,952.42
2023-04-08T04:59:04.326Z,952.43
2023-04-08T05:00:05.432Z,952.43
2023-04-08T05:01:05.825Z,952.41
2023-04-08T05:02:04.337Z,952.44
2023-04-08T05:03:04.332Z,952.45
2023-04-08T05:04:04.282Z,952.46
2023-04-08T05:05:04.329Z,952.46
2023-04-08T05:06:04.241Z,952.41
2023-04-08T05:07:04.428Z,952.44
2023-04-08T05:08:04.314Z,952.42
2023-04-08T05:09:04.225Z,952.40
2023-04-08T05:10:04.208Z,952.39
2023-04-08T05:11:04.381Z,952.40
2023-04-08T05:12:04.175Z,952.43
2023-04-08T05:13:04.207Z,952.43
2023-04-08T05:14:04.176Z,952.43
2023-04-08T05:15:04.202Z,952.43
2023-04-08T05:16:04.221Z,952.49
2023-04-08T05:17:04.237Z,952.48
2023-04-08T05:18:04.197Z,952.47
2023-04-08T05:19:04.110Z,952.49
2023-04-08T05:20:04.172Z,952.51
2023-04-08T05:21:04.168Z,952.55
2023-04-08T05:22:04.079Z,952.52
2023-04-08T05:23:04.122Z,952.56
2023-04-08T05:24:04.034Z,952.60
2023-04-08T05:25:04.257Z,952.59
2023-04-08T05:26:04.037Z,952.58
2023-04-08T05:27:04.013Z,952.62
2023-04-08T05:28:04.738Z,952.62
2023-04-08T05:29:04.054Z,952.65
2023-04-08T05:30:04.065Z,952.64
2023-04-08T05:31:03.999Z,952.65
2023-04-08T05:32:03.961Z,952.67
2023-04-08T05:33:04.039Z,952.68
2023-04-08T05:34:03.920Z,952.68
2023-04-08T05:35:04.063Z,952.69
2023-04-08T05:36:03.968Z,952.64
2023-04-08T05:37:03.964Z,952.66
2023-04-08T05:38:03.880Z,952.62
2023-04-08T05:39:03.896Z,952.62
2023-04-08T05:40:03.872Z,952.60
2023-04-08T05:41:04.319Z,952.57
2023-04-08T05:42:03.838Z,952.63
2023-04-08T05:43:03.833Z,952.62
2023-04-08T05:44:04.690Z,952.68
2023-04-08T05:45:03.813Z,952.65
2023-04-08T05:46:03.795Z,952.72
2023-04-08T05:47:03.890Z,952.67
2023-04-08T05:48:03.867Z,952.73
2023-04-08T05:49:03.762Z,952.74
2023-04-08T05:50:04.733Z,952.75
2023-04-08T05:51:03.764Z,952.76
2023-04-08T05:52:03.788Z,952.80
2023-04-08T05:53:03.784Z,952.78
2023-04-08T05:54:03.794Z,952.82
2023-04-08T05:55:03.750Z,952.83
2023-04-08T05:56:03.693Z,952.81
2023-04-08T05:57:03.732Z,952.83
2023-04-08T05:58:03.718Z,952.84
2023-04-08T05:59:03.635Z,952.83
2023-04-08T06:00:03.868Z,952.89
2023-04-08T06:01:03.675Z,952.89
2023-04-08T06:02:03.805Z,952.97
2023-04-08T06:03:03.867Z,952.97
2023-04-08T06:04:03.775Z,952.98
2023-04-08T06:05:03.745Z,952.96
2023-04-08T06:06:04.228Z,952.96
2023-04-08T06:07:03.598Z,952.99
2023-04-08T06:08:03.546Z,952.99
2023-04-08T06:09:03.613Z,952.96
2023-04-08T06:10:03.629Z,952.92
2023-04-08T06:11:03.489Z,953.00
2023-04-08T06:12:03.649Z,952.95
2023-04-08T06:13:03.464Z,952.95
2023-04-08T06:14:06.378Z,952.94
2023-04-08T06:15:03.483Z,953.03
2023-04-08T06:16:03.532Z,953.00
2023-04-08T06:17:04.266Z,953.04
2023-04-08T06:18:03.478Z,953.01
2023-04-08T06:19:03.494Z,952.99
2023-04-08T06:20:03.445Z,953.06
2023-04-08T06:21:03.409Z,953.03
2023-04-08T06:22:04.278Z,953.04
2023-04-08T06:23:03.462Z,952.98
2023-04-08T06:24:03.372Z,953.06
2023-04-08T06:25:03.358Z,953.03
2023-04-08T06:26:03.313Z,953.02
2023-04-08T06:27:03.422Z,953.00
2023-04-08T06:28:03.293Z,953.01
2023-04-08T06:29:03.338Z,952.99
2023-04-08T06:30:04.377Z,953.00
2023-04-08T06:31:03.289Z,952.99
2023-04-08T06:32:03.323Z,952.97
2023-04-08T06:33:03.408Z,952.99
2023-04-08T06:34:03.258Z,953.00
2023-04-08T06:35:03.237Z,953.03
2023-04-08T06:36:03.335Z,953.06
2023-04-08T06:37:03.303Z,953.07
2023-04-08T06:38:03.469Z,953.14
2023-04-08T06:39:03.756Z,953.14
2023-04-08T06:40:03.265Z,953.17
2023-04-08T06:41:03.736Z,953.12
2023-04-08T06:42:03.245Z,953.12
2023-04-08T06:43:03.125Z,953.12
2023-04-08T06:44:03.202Z,953.13
2023-04-08T06:45:03.719Z,953.08
2023-04-08T06:46:03.170Z,953.17
2023-04-08T06:47:03.103Z,953.12
2023-04-08T06:48:03.158Z,953.15
2023-04-08T06:49:03.109Z,953.12
2023-04-08T06:50:03.045Z,953.16
2023-04-08T06:51:03.054Z,953.15
2023-04-08T06:52:03.165Z,953.12
2023-04-08T06:53:03.028Z,953.13
2023-04-08T06:54:03.772Z,953.15
2023-04-08T06:55:02.983Z,953.14
2023-04-08T06:56:02.986Z,953.06
2023-04-08T06:57:03.140Z,953.08
2023-04-08T06:58:03.003Z,953.08
2023-04-08T06:59:02.953Z,953.10
2023-04-08T07:00:02.946Z,953.12
2023-04-08T07:01:02.977Z,953.14
2023-04-08T07:02:02.979Z,953.14
2023-04-08T07:03:02.972Z,953.13
2023-04-08T07:04:02.956Z,953.15
2023-04-08T07:05:02.918Z,953.18
2023-04-08T07:06:02.861Z,953.17
2023-04-08T07:07:02.859Z,953.18
2023-04-08T07:08:02.836Z,953.16
2023-04-08T07:09:02.978Z,953.19
2023-04-08T07:10:02.816Z,953.19
2023-04-08T07:11:02.859Z,953.22
2023-04-08T07:12:02.888Z,953.24
2023-04-08T07:13:02.819Z,953.21
2023-04-08T07:14:02.800Z,953.26
2023-04-08T07:15:02.836Z,953.24
2023-04-08T07:16:02.812Z,953.22
2023-04-08T07:17:02.805Z,953.24
2023-04-08T07:18:02.872Z,953.27
2023-04-08T07:19:02.885Z,953.31
2023-04-08T07:20:02.767Z,953.33
2023-04-08T07:21:02.729Z,953.33
2023-04-08T07:22:02.717Z,953.33
2023-04-08T07:23:03.305Z,953.31
2023-04-08T07:24:02.681Z,953.29
2023-04-08T07:25:02.668Z,953.30
2023-04-08T07:26:02.665Z,953.38
2023-04-08T07:27:02.626Z,953.37
2023-04-08T07:28:02.614Z,953.38
2023-04-08T07:29:02.640Z,953.43
2023-04-08T07:30:02.631Z,953.39
2023-04-08T07:31:02.680Z,953.42
2023-04-08T07:32:03.556Z,953.47
2023-04-08T07:33:02.650Z,953.47
2023-04-08T07:34:02.699Z,953.48
2023-04-08T07:35:02.587Z,953.48
2023-04-08T07:36:02.596Z,953.46
2023-04-08T07:37:02.591Z,953.49
2023-04-08T07:38:02.634Z,953.47
2023-04-08T07:39:02.520Z,953.51
2023-04-08T07:40:02.581Z,953.52
2023-04-08T07:41:02.475Z,953.55
2023-04-08T07:42:02.540Z,953.57
2023-04-08T07:43:02.468Z,953.57
2023-04-08T07:44:03.224Z,953.55
2023-04-08T07:45:02.428Z,953.59
2023-04-08T07:46:02.455Z,953.57
2023-04-08T07:47:02.604Z,953.62
2023-04-08T07:48:02.521Z,953.59
2023-04-08T07:49:02.386Z,953.62
2023-04-08T07:50:02.387Z,953.62
2023-04-08T07:51:08.722Z,953.67
2023-04-08T07:52:03.344Z,953.62
2023-04-08T07:53:02.399Z,953.63
2023-04-08T07:54:02.317Z,953.62
2023-04-08T07:55:02.311Z,953.62
2023-04-08T07:56:02.440Z,953.61
2023-04-08T07:57:02.366Z,953.66
2023-04-08T07:58:02.610Z,953.64
2023-04-08T07:59:05.224Z,953.62
2023-04-08T08:00:02.254Z,953.61
2023-04-08T08:01:02.234Z,953.59
2023-04-08T08:02:02.396Z,953.63
2023-04-08T08:03:02.382Z,953.68
2023-04-08T08:04:03.012Z,953.67
2023-04-08T08:05:02.316Z,953.65
2023-04-08T08:06:02.201Z,953.69
2023-04-08T08:07:02.167Z,953.70
2023-04-08T08:08:02.157Z,953.71
2023-04-08T08:09:02.180Z,953.72
2023-04-08T08:10:02.190Z,953.72
2023-04-08T08:11:02.145Z,953.67
2023-04-08T08:12:02.288Z,953.69
2023-04-08T08:13:04.727Z,953.70
2023-04-08T08:14:02.294Z,953.75
2023-04-08T08:15:02.124Z,953.73
2023-04-08T08:16:02.252Z,953.75
2023-04-08T08:17:02.065Z,953.74
2023-04-08T08:18:02.231Z,953.78
2023-04-08T08:19:02.057Z,953.78
2023-04-08T08:20:02.038Z,953.79
2023-04-08T08:21:02.174Z,953.78
2023-04-08T08:22:02.132Z,953.77
2023-04-08T08:23:02.133Z,953.79
2023-04-08T08:24:01.970Z,953.83
2023-04-08T08:25:02.007Z,953.78
2023-04-08T08:26:02.119Z,953.81
2023-04-08T08:27:01.955Z,953.83
2023-04-08T08:28:05.688Z,953.81
2023-04-08T08:29:01.914Z,953.81
2023-04-08T08:30:01.902Z,953.79
2023-04-08T08:31:02.005Z,953.79
2023-04-08T08:32:01.902Z,953.79
2023-04-08T08:33:01.935Z,953.85
2023-04-08T08:34:02.685Z,953.84
2023-04-08T08:35:01.886Z,953.85
2023-04-08T08:36:01.971Z,953.84
2023-04-08T08:37:01.829Z,953.89
2023-04-08T08:38:01.843Z,953.86
2023-04-08T08:39:01.854Z,953.91
2023-04-08T08:40:02.728Z,953.94
2023-04-08T08:41:01.862Z,953.95
2023-04-08T08:42:01.772Z,953.93
2023-04-08T08:43:01.923Z,953.95
2023-04-08T08:44:01.780Z,953.93
2023-04-08T08:45:01.747Z,953.87
2023-04-08T08:46:02.265Z,953.95
2023-04-08T08:47:01.796Z,953.94
2023-04-08T08:48:01.879Z,953.92
2023-04-08T08:49:01.699Z,953.93
2023-04-08T08:50:01.673Z,953.95
2023-04-08T08:51:01.673Z,953.99
2023-04-08T08:52:01.786Z,953.97
2023-04-08T08:53:01.677Z,954.01
2023-04-08T08:54:01.657Z,954.07
2023-04-08T08:55:01.661Z,954.07
2023-04-08T08:56:17.216Z,954.12
2023-04-08T08:57:02.639Z,954.08
2023-04-08T08:58:01.609Z,954.10
2023-04-08T08:59:01.609Z,954.12
2023-04-08T09:00:01.801Z,954.12
2023-04-08T09:01:02.251Z,954.18
2023-04-08T09:02:01.721Z,954.15
2023-04-08T09:03:01.755Z,954.19
2023-04-08T09:04:01.705Z,954.22
2023-04-08T09:05:01.620Z,954.20
2023-04-08T09:06:01.639Z,954.27
2023-04-08T09:07:01.481Z,954.31
2023-04-08T09:08:01.470Z,954.30
2023-04-08T09:09:01.519Z,954.28
2023-04-08T09:10:01.481Z,954.31
2023-04-08T09:11:01.491Z,954.28
2023-04-08T09:12:01.423Z,954.31
2023-04-08T09:13:01.502Z,954.30
2023-04-08T09:14:01.416Z,954.34
2023-04-08T09:15:01.428Z,954.34
2023-04-08T09:16:01.397Z,954.34
2023-04-08T09:17:01.410Z,954.32
2023-04-08T09:18:01.394Z,954.38
2023-04-08T09:19:01.399Z,954.35
2023-04-08T09:20:02.226Z,954.39
2023-04-08T09:21:01.344Z,954.40
2023-04-08T09:22:01.430Z,954.40
2023-04-08T09:23:01.319Z,954.40
2023-04-08T09:24:01.330Z,954.40
2023-04-08T09:25:01.299Z,954.36
2023-04-08T09:26:01.261Z,954.40
2023-04-08T09:27:01.423Z,954.43
2023-04-08T09:28:01.281Z,954.40
2023-04-08T09:29:10.926Z,954.40
2023-04-08T09:30:02.279Z,954.45
2023-04-08T09:31:01.206Z,954.44
2023-04-08T09:32:01.568Z,954.43
2023-04-08T09:33:01.278Z,954.46
2023-04-08T09:34:01.198Z,954.48
2023-04-08T09:35:01.185Z,954.49
2023-04-08T09:36:01.208Z,954.53
2023-04-08T09:37:01.172Z,954.55
2023-04-08T09:38:01.887Z,954.54
2023-04-08T09:39:01.171Z,954.62
2023-04-08T09:40:01.119Z,954.59
2023-04-08T09:41:01.733Z,954.60
2023-04-08T09:42:01.197Z,954.56
2023-04-08T09:43:01.116Z,954.56
2023-04-08T09:44:01.241Z,954.60
2023-04-08T09:45:01.150Z,954.61
2023-04-08T09:46:01.265Z,954.55
2023-04-08T09:47:01.092Z,954.57
2023-04-08T09:48:01.024Z,954.55
2023-04-08T09:49:01.011Z,954.63
2023-04-08T09:50:01.025Z,954.58
2023-04-08T09:51:01.014Z,954.58
2023-04-08T09:52:03.764Z,954.62
2023-04-08T09:53:01.131Z,954.63
2023-04-08T09:54:01.045Z,954.65
2023-04-08T09:55:02.086Z,954.65
2023-04-08T09:56:00.962Z,954.61
2023-04-08T09:57:00.940Z,954.66
2023-04-08T09:58:00.951Z,954.66
2023-04-08T09:59:00.908Z,954.67
2023-04-08T10:00:01.113Z,954.66
2023-04-08T10:01:00.929Z,954.67
2023-04-08T10:02:00.966Z,954.68
2023-04-08T10:03:01.100Z,954.69
2023-04-08T10:04:00.940Z,954.69
2023-04-08T10:05:00.966Z,954.66
2023-04-08T10:06:00.849Z,954.66
2023-04-08T10:07:00.812Z,954.71
2023-04-08T10:08:00.816Z,954.72
2023-04-08T10:09:01.375Z,954.70
2023-04-08T10:10:00.766Z,954.70
2023-04-08T10:11:00.757Z,954.74
2023-04-08T10:12:00.748Z,954.78
2023-04-08T10:13:00.754Z,954.73
2023-04-08T10:14:00.751Z,954.73
2023-04-08T10:15:00.862Z,954.75
2023-04-08T10:16:00.758Z,954.72
2023-04-08T10:17:00.738Z,954.79
2023-04-08T10:18:00.727Z,954.77
2023-04-08T10:19:00.682Z,954.73
2023-04-08T10:20:00.706Z,954.74
2023-04-08T10:21:01.264Z,954.74
2023-04-08T10:22:00.633Z,954.76
2023-04-08T10:23:00.623Z,954.75
2023-04-08T10:24:00.632Z,954.73
2023-04-08T10:25:00.594Z,954.75
2023-04-08T10:26:00.615Z,954.78
2023-04-08T10:27:00.701Z,954.78
2023-04-08T10:28:00.585Z,954.76
2023-04-08T10:29:00.577Z,954.75
2023-04-08T10:30:00.559Z,954.81
2023-04-08T10:31:00.556Z,954.77
2023-04-08T10:32:00.542Z,954.80
2023-04-08T10:33:00.737Z,954.76
2023-04-08T10:34:00.500Z,954.71
2023-04-08T10:35:01.229Z,954.72
2023-04-08T10:36:00.537Z,954.72
2023-04-08T10:37:00.463Z,954.70
2023-04-08T10:38:00.451Z,954.75
2023-04-08T10:39:00.464Z,954.78
2023-04-08T10:40:00.455Z,954.77
2023-04-08T10:41:00.414Z,954.80
2023-04-08T10:42:00.423Z,954.77
2023-04-08T10:43:00.394Z,954.74
2023-04-08T10:44:00.378Z,954.78
2023-04-08T10:45:01.210Z,954.82
2023-04-08T10:46:00.391Z,954.80
2023-04-08T10:47:00.361Z,954.71
2023-04-08T10:48:00.418Z,954.71
2023-04-08T10:49:01.250Z,954.70
2023-04-08T10:50:00.316Z,954.72
2023-04-08T10:51:00.459Z,954.76
2023-04-08T10:52:00.288Z,954.76
2023-04-08T10:53:00.283Z,954.75
2023-04-08T10:54:00.264Z,954.73
2023-04-08T10:55:00.282Z,954.73
2023-04-08T10:56:01.229Z,954.73
2023-04-08T10:57:01.188Z,954.73
2023-04-08T10:58:00.279Z,954.67
2023-04-08T10:59:00.234Z,954.71
2023-04-08T11:00:00.238Z,954.74
2023-04-08T11:01:00.209Z,954.75
2023-04-08T11:02:00.425Z,954.76
2023-04-08T11:03:00.334Z,954.74
2023-04-08T11:04:00.338Z,954.73
2023-04-08T11:05:00.216Z,954.78
2023-04-08T11:06:00.134Z,954.81
2023-04-08T11:07:00.125Z,954.76
2023-04-08T11:08:00.142Z,954.80
2023-04-08T11:09:00.201Z,954.85
2023-04-08T11:10:00.145Z,954.85
2023-04-08T11:11:00.104Z,954.84
2023-04-08T11:12:00.108Z,954.82
2023-04-08T11:13:00.124Z,954.85
2023-04-08T11:14:00.084Z,954.86
2023-04-08T11:15:00.121Z,954.89
2023-04-08T11:16:00.323Z,954.82
2023-04-08T11:17:00.008Z,954.85
2023-04-08T11:18:00.066Z,954.84
2023-04-08T11:18:59.987Z,954.90
2023-04-08T11:19:59.978Z,954.88
2023-04-08T11:21:00.400Z,954.90
2023-04-08T11:21:59.974Z,954.92
2023-04-08T11:23:00.026Z,954.91
2023-04-08T11:23:59.954Z,954.96
2023-04-08T11:25:00.736Z,954.97
2023-04-08T11:25:59.926Z,954.97
2023-04-08T11:27:01.342Z,954.97
2023-04-08T11:27:59.880Z,954.98
2023-04-08T11:28:59.892Z,954.97
2023-04-08T11:30:00.686Z,954.97
2023-04-08T11:30:59.908Z,955.00
2023-04-08T11:31:59.853Z,954.96
2023-04-08T11:32:59.849Z,954.94
2023-04-08T11:33:59.976Z,955.04
2023-04-08T11:34:59.801Z,955.03
2023-04-08T11:35:59.837Z,955.04
2023-04-08T11:36:59.793Z,955.06
2023-04-08T11:37:59.773Z,955.08
2023-04-08T11:38:59.778Z,955.10
2023-04-08T11:39:59.748Z,955.04
2023-04-08T11:40:59.855Z,955.08
2023-04-08T11:41:59.738Z,955.05
2023-04-08T11:42:59.709Z,955.06
2023-04-08T11:44:00.691Z,955.10
2023-04-08T11:44:59.713Z,955.08
2023-04-08T11:45:59.721Z,955.10
2023-04-08T11:46:59.705Z,955.05
2023-04-08T11:48:08.264Z,955.07
2023-04-08T11:49:00.654Z,955.09
2023-04-08T11:49:59.666Z,955.08
2023-04-08T11:50:59.625Z,955.06
2023-04-08T11:51:59.635Z,955.06
2023-04-08T11:52:59.637Z,955.09
2023-04-08T11:53:59.623Z,955.04
2023-04-08T11:54:59.572Z,955.03
2023-04-08T11:55:59.607Z,955.03
2023-04-08T11:56:59.664Z,955.03
2023-04-08T11:57:59.540Z,955.03
2023-04-08T11:59:00.263Z,955.07
2023-04-08T11:59:59.509Z,955.08
2023-04-08T12:00:59.504Z,955.07
2023-04-08T12:01:59.549Z,955.05
2023-04-08T12:02:59.549Z,955.08
2023-04-08T12:03:59.601Z,955.09
2023-04-08T12:04:59.488Z,955.09
2023-04-08T12:05:59.442Z,955.11
2023-04-08T12:06:59.510Z,955.10
2023-04-08T12:07:59.449Z,955.11
2023-04-08T12:09:00.614Z,955.12
2023-04-08T12:09:59.397Z,955.11
2023-04-08T12:11:09.260Z,955.11
2023-04-08T12:12:01.240Z,955.12
2023-04-08T12:12:59.512Z,955.09
2023-04-08T12:13:59.378Z,955.10
2023-04-08T12:15:00.286Z,955.10
2023-04-08T12:15:59.376Z,955.12
2023-04-08T12:16:59.311Z,955.12
2023-04-08T12:17:59.317Z,955.10
2023-04-08T12:18:59.308Z,955.11
2023-04-08T12:20:00.205Z,955.16
2023-04-08T12:20:59.268Z,955.14
2023-04-08T12:22:00.244Z,955.15
2023-04-08T12:22:59.262Z,955.13
2023-04-08T12:23:59.257Z,955.10
2023-04-08T12:24:59.433Z,955.14
2023-04-08T12:25:59.215Z,955.16
2023-04-08T12:27:00.190Z,955.17
2023-04-08T12:27:59.736Z,955.20